sensor_id;sensor_type;location;lat;lon;timestamp;P1;durP1;ratioP1;P2;durP2;ratioP2
45043;SDS011;30784;48.490;9.688;2023-01-05T00:01:36;1.83;;;0.60;;
45043;SDS011;30784;48.490;9.688;2023-01-05T00:04:02;1.70;;;0.50;;
45043;SDS011;30784;48.490;9.688;2023-01-05T00:06:28;2.25;;;0.50;;
45043;SDS011;30784;48.490;9.688;2023-01-05T00:08:54;2.00;;;0.38;;
45043;SDS011;30784;48.490;9.688;2023-01-05T00:11:20;0.70;;;0.40;;
45043;SDS011;30784;48.490;9.688;2023-01-05T00:14:09;0.75;;;0.15;;
45043;SDS011;30784;48.490;9.688;2023-01-05T00:17:02;0.85;;;0.20;;
45043;SDS011;30784;48.490;9.688;2023-01-05T00:19:48;0.68;;;0.10;;
45043;SDS011;30784;48.490;9.688;2023-01-05T00:22:33;0.40;;;0.10;;
45043;SDS011;30784;48.490;9.688;2023-01-05T00:25:12;0.70;;;0.17;;
45043;SDS011;30784;48.490;9.688;2023-01-05T00:27:42;0.93;;;0.10;;
45043;SDS011;30784;48.490;9.688;2023-01-05T00:30:15;0.50;;;0.10;;
45043;SDS011;30784;48.490;9.688;2023-01-05T00:32:43;1.17;;;0.35;;
45043;SDS011;30784;48.490;9.688;2023-01-05T00:35:09;1.20;;;0.30;;
45043;SDS011;30784;48.490;9.688;2023-01-05T00:37:36;0.95;;;0.20;;
45043;SDS011;30784;48.490;9.688;2023-01-05T00:40:03;1.10;;;0.13;;
45043;SDS011;30784;48.490;9.688;2023-01-05T00:42:33;0.75;;;0.10;;
45043;SDS011;30784;48.490;9.688;2023-01-05T00:44:59;0.05;;;0.03;;
45043;SDS011;30784;48.490;9.688;2023-01-05T00:47:24;1.38;;;0.40;;
45043;SDS011;30784;48.490;9.688;2023-01-05T00:49:50;0.95;;;0.20;;
45043;SDS011;30784;48.490;9.688;2023-01-05T00:52:16;0.10;;;0.05;;
45043;SDS011;30784;48.490;9.688;2023-01-05T00:54:41;0.20;;;0.10;;
45043;SDS011;30784;48.490;9.688;2023-01-05T00:57:09;1.10;;;0.10;;
45043;SDS011;30784;48.490;9.688;2023-01-05T00:59:35;1.60;;;0.20;;
45043;SDS011;30784;48.490;9.688;2023-01-05T01:02:01;0.10;;;0.10;;
45043;SDS011;30784;48.490;9.688;2023-01-05T01:04:26;0.93;;;0.20;;
45043;SDS011;30784;48.490;9.688;2023-01-05T01:06:54;0.10;;;0.10;;
45043;SDS011;30784;48.490;9.688;2023-01-05T01:09:20;0.85;;;0.10;;
45043;SDS011;30784;48.490;9.688;2023-01-05T01:11:45;2.28;;;0.52;;
45043;SDS011;30784;48.490;9.688;2023-01-05T01:14:11;0.80;;;0.20;;
45043;SDS011;30784;48.490;9.688;2023-01-05T01:16:38;0.70;;;0.17;;
45043;SDS011;30784;48.490;9.688;2023-01-05T01:19:12;0.40;;;0.10;;
45043;SDS011;30784;48.490;9.688;2023-01-05T01:21:39;0.63;;;0.10;;
45043;SDS011;30784;48.490;9.688;2023-01-05T01:24:05;0.52;;;0.10;;
45043;SDS011;30784;48.490;9.688;2023-01-05T01:26:31;0.00;;;0.00;;
45043;SDS011;30784;48.490;9.688;2023-01-05T01:28:56;0.70;;;0.15;;
45043;SDS011;30784;48.490;9.688;2023-01-05T01:31:22;0.88;;;0.10;;
45043;SDS011;30784;48.490;9.688;2023-01-05T01:33:48;0.43;;;0.10;;
45043;SDS011;30784;48.490;9.688;2023-01-05T01:36:13;1.60;;;0.10;;
45043;SDS011;30784;48.490;9.688;2023-01-05T01:38:39;0.28;;;0.10;;
45043;SDS011;30784;48.490;9.688;2023-01-05T01:41:04;0.52;;;0.10;;
45043;SDS011;30784;48.490;9.688;2023-01-05T01:43:46;0.30;;;0.20;;
45043;SDS011;30784;48.490;9.688;2023-01-05T01:46:14;1.38;;;0.10;;
45043;SDS011;30784;48.490;9.688;2023-01-05T01:48:43;0.55;;;0.10;;
45043;SDS011;30784;48.490;9.688;2023-01-05T01:51:34;0.93;;;0.20;;
45043;SDS011;30784;48.490;9.688;2023-01-05T01:54:04;0.77;;;0.20;;
45043;SDS011;30784;48.490;9.688;2023-01-05T01:56:37;0.52;;;0.20;;
45043;SDS011;30784;48.490;9.688;2023-01-05T01:59:09;0.10;;;0.10;;
45043;SDS011;30784;48.490;9.688;2023-01-05T02:01:35;0.30;;;0.10;;
45043;SDS011;30784;48.490;9.688;2023-01-05T02:04:01;0.35;;;0.17;;
45043;SDS011;30784;48.490;9.688;2023-01-05T02:06:27;1.00;;;0.10;;
45043;SDS011;30784;48.490;9.688;2023-01-05T02:08:53;0.88;;;0.10;;
45043;SDS011;30784;48.490;9.688;2023-01-05T02:11:32;0.10;;;0.03;;
45043;SDS011;30784;48.490;9.688;2023-01-05T02:14:36;0.15;;;0.00;;
45043;SDS011;30784;48.490;9.688;2023-01-05T02:22:58;0.03;;;0.00;;
45043;SDS011;30784;48.490;9.688;2023-01-05T02:28:42;0.77;;;0.08;;
45043;SDS011;30784;48.490;9.688;2023-01-05T02:31:35;0.28;;;0.00;;
45043;SDS011;30784;48.490;9.688;2023-01-05T02:37:12;0.10;;;0.08;;
45043;SDS011;30784;48.490;9.688;2023-01-05T02:39:48;0.47;;;0.00;;
45043;SDS011;30784;48.490;9.688;2023-01-05T02:42:22;0.10;;;0.00;;
45043;SDS011;30784;48.490;9.688;2023-01-05T02:44:49;0.30;;;0.00;;
45043;SDS011;30784;48.490;9.688;2023-01-05T02:49:49;0.70;;;0.10;;
45043;SDS011;30784;48.490;9.688;2023-01-05T02:52:39;0.20;;;0.00;;
45043;SDS011;30784;48.490;9.688;2023-01-05T02:55:12;0.70;;;0.10;;
45043;SDS011;30784;48.490;9.688;2023-01-05T02:57:43;0.32;;;0.10;;
45043;SDS011;30784;48.490;9.688;2023-01-05T03:00:40;0.95;;;0.10;;
45043;SDS011;30784;48.490;9.688;2023-01-05T03:03:12;0.32;;;0.08;;
45043;SDS011;30784;48.490;9.688;2023-01-05T03:05:54;0.00;;;0.00;;
45043;SDS011;30784;48.490;9.688;2023-01-05T03:08:25;0.32;;;0.00;;
45043;SDS011;30784;48.490;9.688;2023-01-05T03:11:02;0.83;;;0.03;;
45043;SDS011;30784;48.490;9.688;2023-01-05T03:13:50;0.20;;;0.00;;
45043;SDS011;30784;48.490;9.688;2023-01-05T03:16:39;0.08;;;0.00;;
45043;SDS011;30784;48.490;9.688;2023-01-05T03:19:08;0.38;;;0.10;;
45043;SDS011;30784;48.490;9.688;2023-01-05T03:21:54;0.00;;;0.00;;
45043;SDS011;30784;48.490;9.688;2023-01-05T03:24:40;0.30;;;0.00;;
45043;SDS011;30784;48.490;9.688;2023-01-05T03:27:26;0.00;;;0.00;;
45043;SDS011;30784;48.490;9.688;2023-01-05T03:30:11;0.45;;;0.00;;
45043;SDS011;30784;48.490;9.688;2023-01-05T03:33:04;0.30;;;0.10;;
45043;SDS011;30784;48.490;9.688;2023-01-05T03:35:55;0.00;;;0.00;;
45043;SDS011;30784;48.490;9.688;2023-01-05T03:38:37;0.00;;;0.00;;
45043;SDS011;30784;48.490;9.688;2023-01-05T03:41:07;0.10;;;0.00;;
45043;SDS011;30784;48.490;9.688;2023-01-05T03:43:35;0.40;;;0.00;;
45043;SDS011;30784;48.490;9.688;2023-01-05T03:46:03;0.10;;;0.03;;
45043;SDS011;30784;48.490;9.688;2023-01-05T03:48:41;0.10;;;0.00;;
45043;SDS011;30784;48.490;9.688;2023-01-05T03:51:07;0.00;;;0.00;;
45043;SDS011;30784;48.490;9.688;2023-01-05T03:53:33;0.10;;;0.00;;
45043;SDS011;30784;48.490;9.688;2023-01-05T03:55:58;1.25;;;0.00;;
45043;SDS011;30784;48.490;9.688;2023-01-05T03:58:24;0.00;;;0.00;;
45043;SDS011;30784;48.490;9.688;2023-01-05T04:00:49;0.35;;;0.10;;
45043;SDS011;30784;48.490;9.688;2023-01-05T04:03:15;0.30;;;0.00;;
45043;SDS011;30784;48.490;9.688;2023-01-05T04:05:40;0.20;;;0.10;;
45043;SDS011;30784;48.490;9.688;2023-01-05T04:08:06;0.38;;;0.03;;
45043;SDS011;30784;48.490;9.688;2023-01-05T04:10:32;0.30;;;0.00;;
45043;SDS011;30784;48.490;9.688;2023-01-05T04:12:57;0.10;;;0.00;;
45043;SDS011;30784;48.490;9.688;2023-01-05T04:15:23;0.10;;;0.00;;
45043;SDS011;30784;48.490;9.688;2023-01-05T04:17:48;0.38;;;0.00;;
45043;SDS011;30784;48.490;9.688;2023-01-05T04:20:17;0.20;;;0.00;;
45043;SDS011;30784;48.490;9.688;2023-01-05T04:22:45;0.30;;;0.10;;
45043;SDS011;30784;48.490;9.688;2023-01-05T04:25:10;0.00;;;0.00;;
45043;SDS011;30784;48.490;9.688;2023-01-05T04:27:36;0.65;;;0.10;;
45043;SDS011;30784;48.490;9.688;2023-01-05T04:30:02;0.00;;;0.00;;
45043;SDS011;30784;48.490;9.688;2023-01-05T04:32:28;0.00;;;0.00;;
45043;SDS011;30784;48.490;9.688;2023-01-05T04:34:53;0.50;;;0.10;;
45043;SDS011;30784;48.490;9.688;2023-01-05T04:37:19;1.00;;;0.20;;
45043;SDS011;30784;48.490;9.688;2023-01-05T04:39:44;1.08;;;0.20;;
45043;SDS011;30784;48.490;9.688;2023-01-05T04:42:10;0.50;;;0.20;;
45043;SDS011;30784;48.490;9.688;2023-01-05T04:44:35;1.17;;;0.13;;
45043;SDS011;30784;48.490;9.688;2023-01-05T04:47:01;0.10;;;0.03;;
45043;SDS011;30784;48.490;9.688;2023-01-05T04:49:27;0.00;;;0.00;;
45043;SDS011;30784;48.490;9.688;2023-01-05T04:51:52;0.00;;;0.00;;
45043;SDS011;30784;48.490;9.688;2023-01-05T04:54:18;0.75;;;0.20;;
45043;SDS011;30784;48.490;9.688;2023-01-05T04:56:43;0.10;;;0.10;;
45043;SDS011;30784;48.490;9.688;2023-01-05T04:59:09;0.75;;;0.00;;
45043;SDS011;30784;48.490;9.688;2023-01-05T05:01:35;0.00;;;0.00;;
45043;SDS011;30784;48.490;9.688;2023-01-05T05:04:00;0.20;;;0.08;;
45043;SDS011;30784;48.490;9.688;2023-01-05T05:06:26;0.32;;;0.10;;
45043;SDS011;30784;48.490;9.688;2023-01-05T05:08:51;0.65;;;0.10;;
45043;SDS011;30784;48.490;9.688;2023-01-05T05:11:17;1.38;;;0.30;;
45043;SDS011;30784;48.490;9.688;2023-01-05T05:13:42;1.42;;;0.35;;
45043;SDS011;30784;48.490;9.688;2023-01-05T05:16:08;1.83;;;0.25;;
45043;SDS011;30784;48.490;9.688;2023-01-05T05:18:33;2.10;;;1.02;;
45043;SDS011;30784;48.490;9.688;2023-01-05T05:20:59;0.73;;;0.30;;
45043;SDS011;30784;48.490;9.688;2023-01-05T05:23:24;0.28;;;0.10;;
45043;SDS011;30784;48.490;9.688;2023-01-05T05:25:51;0.65;;;0.10;;
45043;SDS011;30784;48.490;9.688;2023-01-05T05:28:17;0.30;;;0.00;;
45043;SDS011;30784;48.490;9.688;2023-01-05T05:30:43;0.40;;;0.10;;
45043;SDS011;30784;48.490;9.688;2023-01-05T05:33:09;0.10;;;0.00;;
45043;SDS011;30784;48.490;9.688;2023-01-05T05:35:35;0.47;;;0.08;;
45043;SDS011;30784;48.490;9.688;2023-01-05T05:38:00;0.10;;;0.10;;
45043;SDS011;30784;48.490;9.688;2023-01-05T05:40:26;0.20;;;0.08;;
45043;SDS011;30784;48.490;9.688;2023-01-05T05:42:53;0.90;;;0.10;;
45043;SDS011;30784;48.490;9.688;2023-01-05T05:45:19;0.32;;;0.10;;
45043;SDS011;30784;48.490;9.688;2023-01-05T05:47:44;0.17;;;0.08;;
45043;SDS011;30784;48.490;9.688;2023-01-05T05:50:10;0.00;;;0.00;;
45043;SDS011;30784;48.490;9.688;2023-01-05T05:52:35;0.52;;;0.10;;
45043;SDS011;30784;48.490;9.688;2023-01-05T05:55:01;0.10;;;0.00;;
45043;SDS011;30784;48.490;9.688;2023-01-05T05:57:26;0.40;;;0.10;;
45043;SDS011;30784;48.490;9.688;2023-01-05T05:59:52;0.20;;;0.00;;
45043;SDS011;30784;48.490;9.688;2023-01-05T06:02:17;0.45;;;0.10;;
45043;SDS011;30784;48.490;9.688;2023-01-05T06:04:44;0.25;;;0.10;;
45043;SDS011;30784;48.490;9.688;2023-01-05T06:07:09;0.15;;;0.05;;
45043;SDS011;30784;48.490;9.688;2023-01-05T06:09:35;1.02;;;0.20;;
45043;SDS011;30784;48.490;9.688;2023-01-05T06:12:01;0.77;;;0.30;;
45043;SDS011;30784;48.490;9.688;2023-01-05T06:14:26;1.27;;;0.28;;
45043;SDS011;30784;48.490;9.688;2023-01-05T06:16:52;0.52;;;0.20;;
45043;SDS011;30784;48.490;9.688;2023-01-05T06:19:17;0.20;;;0.10;;
45043;SDS011;30784;48.490;9.688;2023-01-05T06:21:43;0.32;;;0.10;;
45043;SDS011;30784;48.490;9.688;2023-01-05T06:24:09;0.32;;;0.20;;
45043;SDS011;30784;48.490;9.688;2023-01-05T06:26:34;0.10;;;0.03;;
45043;SDS011;30784;48.490;9.688;2023-01-05T06:29:00;0.45;;;0.10;;
45043;SDS011;30784;48.490;9.688;2023-01-05T06:31:25;0.15;;;0.10;;
45043;SDS011;30784;48.490;9.688;2023-01-05T06:33:51;0.17;;;0.10;;
45043;SDS011;30784;48.490;9.688;2023-01-05T06:36:16;0.70;;;0.00;;
45043;SDS011;30784;48.490;9.688;2023-01-05T06:38:42;0.10;;;0.00;;
45043;SDS011;30784;48.490;9.688;2023-01-05T06:41:08;0.47;;;0.10;;
45043;SDS011;30784;48.490;9.688;2023-01-05T06:43:33;1.02;;;0.32;;
45043;SDS011;30784;48.490;9.688;2023-01-05T06:45:59;1.00;;;0.30;;
45043;SDS011;30784;48.490;9.688;2023-01-05T06:48:25;0.20;;;0.10;;
45043;SDS011;30784;48.490;9.688;2023-01-05T06:50:50;0.80;;;0.22;;
45043;SDS011;30784;48.490;9.688;2023-01-05T06:53:16;0.60;;;0.20;;
45043;SDS011;30784;48.490;9.688;2023-01-05T06:55:42;0.68;;;0.28;;
45043;SDS011;30784;48.490;9.688;2023-01-05T06:58:08;1.08;;;0.50;;
45043;SDS011;30784;48.490;9.688;2023-01-05T07:00:34;0.50;;;0.20;;
45043;SDS011;30784;48.490;9.688;2023-01-05T07:02:59;1.80;;;0.60;;
45043;SDS011;30784;48.490;9.688;2023-01-05T07:05:25;2.88;;;1.00;;
45043;SDS011;30784;48.490;9.688;2023-01-05T07:07:50;1.38;;;0.63;;
45043;SDS011;30784;48.490;9.688;2023-01-05T07:10:16;0.50;;;0.10;;
45043;SDS011;30784;48.490;9.688;2023-01-05T07:12:42;0.52;;;0.10;;
45043;SDS011;30784;48.490;9.688;2023-01-05T07:15:08;1.00;;;0.30;;
45043;SDS011;30784;48.490;9.688;2023-01-05T07:17:33;0.80;;;0.30;;
45043;SDS011;30784;48.490;9.688;2023-01-05T07:20:00;0.55;;;0.10;;
45043;SDS011;30784;48.490;9.688;2023-01-05T07:22:26;2.17;;;0.70;;
45043;SDS011;30784;48.490;9.688;2023-01-05T07:24:54;1.08;;;0.40;;
45043;SDS011;30784;48.490;9.688;2023-01-05T07:27:21;1.67;;;0.50;;
45043;SDS011;30784;48.490;9.688;2023-01-05T07:29:47;1.00;;;0.30;;
45043;SDS011;30784;48.490;9.688;2023-01-05T07:32:13;0.93;;;0.20;;
45043;SDS011;30784;48.490;9.688;2023-01-05T07:34:38;0.40;;;0.20;;
45043;SDS011;30784;48.490;9.688;2023-01-05T07:37:04;0.73;;;0.20;;
45043;SDS011;30784;48.490;9.688;2023-01-05T07:39:29;1.02;;;0.10;;
45043;SDS011;30784;48.490;9.688;2023-01-05T07:41:55;1.15;;;0.30;;
45043;SDS011;30784;48.490;9.688;2023-01-05T07:44:20;1.60;;;0.43;;
45043;SDS011;30784;48.490;9.688;2023-01-05T07:46:46;0.80;;;0.30;;
45043;SDS011;30784;48.490;9.688;2023-01-05T07:49:11;0.52;;;0.30;;
45043;SDS011;30784;48.490;9.688;2023-01-05T07:51:37;1.10;;;0.45;;
45043;SDS011;30784;48.490;9.688;2023-01-05T07:54:02;0.93;;;0.20;;
45043;SDS011;30784;48.490;9.688;2023-01-05T07:56:31;0.63;;;0.20;;
45043;SDS011;30784;48.490;9.688;2023-01-05T07:59:00;1.20;;;0.20;;
45043;SDS011;30784;48.490;9.688;2023-01-05T08:01:25;0.75;;;0.20;;
45043;SDS011;30784;48.490;9.688;2023-01-05T08:03:51;0.38;;;0.10;;
45043;SDS011;30784;48.490;9.688;2023-01-05T08:06:17;0.10;;;0.08;;
45043;SDS011;30784;48.490;9.688;2023-01-05T08:08:44;0.10;;;0.10;;
45043;SDS011;30784;48.490;9.688;2023-01-05T08:11:14;0.85;;;0.30;;
45043;SDS011;30784;48.490;9.688;2023-01-05T08:13:42;2.10;;;0.40;;
45043;SDS011;30784;48.490;9.688;2023-01-05T08:16:29;0.75;;;0.17;;
45043;SDS011;30784;48.490;9.688;2023-01-05T08:21:22;1.25;;;0.40;;
45043;SDS011;30784;48.490;9.688;2023-01-05T08:23:48;2.50;;;0.60;;
45043;SDS011;30784;48.490;9.688;2023-01-05T08:26:17;2.20;;;0.60;;
45043;SDS011;30784;48.490;9.688;2023-01-05T08:28:45;2.30;;;0.73;;
45043;SDS011;30784;48.490;9.688;2023-01-05T08:31:12;2.95;;;0.82;;
45043;SDS011;30784;48.490;9.688;2023-01-05T08:33:40;3.08;;;0.80;;
45043;SDS011;30784;48.490;9.688;2023-01-05T08:36:10;2.40;;;0.70;;
45043;SDS011;30784;48.490;9.688;2023-01-05T08:38:41;2.95;;;0.60;;
45043;SDS011;30784;48.490;9.688;2023-01-05T08:41:20;3.08;;;0.70;;
45043;SDS011;30784;48.490;9.688;2023-01-05T08:43:53;3.92;;;0.60;;
45043;SDS011;30784;48.490;9.688;2023-01-05T08:46:21;3.15;;;0.60;;
45043;SDS011;30784;48.490;9.688;2023-01-05T08:48:49;2.33;;;0.50;;
45043;SDS011;30784;48.490;9.688;2023-01-05T08:51:15;2.72;;;0.70;;
45043;SDS011;30784;48.490;9.688;2023-01-05T08:53:41;3.40;;;0.60;;
45043;SDS011;30784;48.490;9.688;2023-01-05T08:56:07;2.20;;;0.70;;
45043;SDS011;30784;48.490;9.688;2023-01-05T08:58:34;2.22;;;0.47;;
45043;SDS011;30784;48.490;9.688;2023-01-05T09:01:04;1.73;;;0.60;;
45043;SDS011;30784;48.490;9.688;2023-01-05T09:03:34;2.60;;;0.68;;
45043;SDS011;30784;48.490;9.688;2023-01-05T09:06:00;2.17;;;0.73;;
45043;SDS011;30784;48.490;9.688;2023-01-05T09:08:28;2.22;;;0.70;;
45043;SDS011;30784;48.490;9.688;2023-01-05T09:11:07;2.72;;;0.57;;
45043;SDS011;30784;48.490;9.688;2023-01-05T09:13:36;2.20;;;0.57;;
45043;SDS011;30784;48.490;9.688;2023-01-05T09:16:09;2.33;;;0.60;;
45043;SDS011;30784;48.490;9.688;2023-01-05T09:18:37;2.75;;;0.70;;
45043;SDS011;30784;48.490;9.688;2023-01-05T09:21:03;5.60;;;1.30;;
45043;SDS011;30784;48.490;9.688;2023-01-05T09:23:30;3.70;;;0.77;;
45043;SDS011;30784;48.490;9.688;2023-01-05T09:25:56;3.03;;;0.88;;
45043;SDS011;30784;48.490;9.688;2023-01-05T09:28:22;2.60;;;0.60;;
45043;SDS011;30784;48.490;9.688;2023-01-05T09:30:47;2.13;;;0.60;;
45043;SDS011;30784;48.490;9.688;2023-01-05T09:33:13;2.53;;;0.80;;
45043;SDS011;30784;48.490;9.688;2023-01-05T09:35:39;2.47;;;0.80;;
45043;SDS011;30784;48.490;9.688;2023-01-05T09:38:04;1.98;;;0.50;;
45043;SDS011;30784;48.490;9.688;2023-01-05T09:40:31;3.63;;;0.80;;
45043;SDS011;30784;48.490;9.688;2023-01-05T09:43:02;2.85;;;0.80;;
45043;SDS011;30784;48.490;9.688;2023-01-05T09:45:29;2.92;;;0.70;;
45043;SDS011;30784;48.490;9.688;2023-01-05T09:47:54;1.90;;;0.70;;
45043;SDS011;30784;48.490;9.688;2023-01-05T09:50:22;2.55;;;0.60;;
45043;SDS011;30784;48.490;9.688;2023-01-05T09:52:50;2.70;;;0.60;;
45043;SDS011;30784;48.490;9.688;2023-01-05T09:55:21;4.10;;;0.88;;
45043;SDS011;30784;48.490;9.688;2023-01-05T09:58:01;5.00;;;1.20;;
45043;SDS011;30784;48.490;9.688;2023-01-05T10:00:32;4.80;;;1.23;;
45043;SDS011;30784;48.490;9.688;2023-01-05T10:03:05;4.53;;;1.20;;
45043;SDS011;30784;48.490;9.688;2023-01-05T10:05:38;3.20;;;1.05;;
45043;SDS011;30784;48.490;9.688;2023-01-05T10:08:17;3.05;;;0.82;;
45043;SDS011;30784;48.490;9.688;2023-01-05T10:10:50;3.28;;;0.90;;
45043;SDS011;30784;48.490;9.688;2023-01-05T10:14:09;3.63;;;0.90;;
45043;SDS011;30784;48.490;9.688;2023-01-05T10:16:34;2.80;;;0.80;;
45043;SDS011;30784;48.490;9.688;2023-01-05T10:19:00;3.28;;;0.90;;
45043;SDS011;30784;48.490;9.688;2023-01-05T10:24:13;3.50;;;0.82;;
45043;SDS011;30784;48.490;9.688;2023-01-05T10:26:55;3.67;;;0.88;;
45043;SDS011;30784;48.490;9.688;2023-01-05T10:29:53;4.75;;;1.08;;
45043;SDS011;30784;48.490;9.688;2023-01-05T10:38:43;5.00;;;1.00;;
45043;SDS011;30784;48.490;9.688;2023-01-05T10:46:31;2.47;;;0.70;;
45043;SDS011;30784;48.490;9.688;2023-01-05T10:48:57;3.85;;;1.10;;
45043;SDS011;30784;48.490;9.688;2023-01-05T10:51:24;5.20;;;1.27;;
45043;SDS011;30784;48.490;9.688;2023-01-05T10:53:50;3.50;;;1.00;;
45043;SDS011;30784;48.490;9.688;2023-01-05T10:56:23;4.45;;;1.30;;
45043;SDS011;30784;48.490;9.688;2023-01-05T10:59:05;4.93;;;1.25;;
45043;SDS011;30784;48.490;9.688;2023-01-05T11:01:31;6.20;;;1.17;;
45043;SDS011;30784;48.490;9.688;2023-01-05T11:04:01;3.35;;;1.15;;
45043;SDS011;30784;48.490;9.688;2023-01-05T11:06:34;5.70;;;1.13;;
45043;SDS011;30784;48.490;9.688;2023-01-05T11:09:17;3.97;;;1.00;;
45043;SDS011;30784;48.490;9.688;2023-01-05T11:11:51;6.68;;;1.27;;
45043;SDS011;30784;48.490;9.688;2023-01-05T11:14:25;5.75;;;1.17;;
45043;SDS011;30784;48.490;9.688;2023-01-05T11:16:53;7.22;;;1.40;;
45043;SDS011;30784;48.490;9.688;2023-01-05T11:19:35;5.25;;;1.20;;
45043;SDS011;30784;48.490;9.688;2023-01-05T11:22:25;6.85;;;1.40;;
45043;SDS011;30784;48.490;9.688;2023-01-05T11:27:45;6.50;;;1.30;;
45043;SDS011;30784;48.490;9.688;2023-01-05T11:32:39;7.90;;;1.60;;
45043;SDS011;30784;48.490;9.688;2023-01-05T11:35:15;6.70;;;1.35;;
45043;SDS011;30784;48.490;9.688;2023-01-05T11:38:00;5.57;;;1.10;;
45043;SDS011;30784;48.490;9.688;2023-01-05T11:40:27;4.90;;;1.20;;
45043;SDS011;30784;48.490;9.688;2023-01-05T11:42:55;5.40;;;1.40;;
45043;SDS011;30784;48.490;9.688;2023-01-05T11:45:22;5.45;;;1.10;;
45043;SDS011;30784;48.490;9.688;2023-01-05T11:47:59;7.03;;;1.35;;
45043;SDS011;30784;48.490;9.688;2023-01-05T11:50:31;6.78;;;1.55;;
45043;SDS011;30784;48.490;9.688;2023-01-05T11:58:41;6.63;;;1.73;;
45043;SDS011;30784;48.490;9.688;2023-01-05T12:09:36;7.00;;;1.70;;
45043;SDS011;30784;48.490;9.688;2023-01-05T12:15:00;7.50;;;1.85;;
45043;SDS011;30784;48.490;9.688;2023-01-05T12:17:43;6.78;;;1.58;;
45043;SDS011;30784;48.490;9.688;2023-01-05T12:20:40;9.07;;;1.77;;
45043;SDS011;30784;48.490;9.688;2023-01-05T12:25:53;9.20;;;1.80;;
45043;SDS011;30784;48.490;9.688;2023-01-05T12:34:05;7.57;;;1.80;;
45043;SDS011;30784;48.490;9.688;2023-01-05T12:42:08;8.40;;;1.80;;
45043;SDS011;30784;48.490;9.688;2023-01-05T12:45:05;8.90;;;1.88;;
45043;SDS011;30784;48.490;9.688;2023-01-05T12:48:07;8.65;;;1.40;;
45043;SDS011;30784;48.490;9.688;2023-01-05T12:56:34;7.20;;;1.70;;
45043;SDS011;30784;48.490;9.688;2023-01-05T13:04:46;9.90;;;3.05;;
45043;SDS011;30784;48.490;9.688;2023-01-05T13:09:51;7.60;;;1.60;;
45043;SDS011;30784;48.490;9.688;2023-01-05T13:12:23;10.20;;;2.05;;
45043;SDS011;30784;48.490;9.688;2023-01-05T13:15:01;10.60;;;1.75;;
45043;SDS011;30784;48.490;9.688;2023-01-05T13:17:43;9.88;;;2.20;;
45043;SDS011;30784;48.490;9.688;2023-01-05T13:20:19;8.00;;;1.63;;
45043;SDS011;30784;48.490;9.688;2023-01-05T13:22:48;9.13;;;1.85;;
45043;SDS011;30784;48.490;9.688;2023-01-05T13:25:19;6.85;;;1.90;;
45043;SDS011;30784;48.490;9.688;2023-01-05T13:27:47;10.88;;;2.22;;
45043;SDS011;30784;48.490;9.688;2023-01-05T13:44:40;7.95;;;1.90;;
45043;SDS011;30784;48.490;9.688;2023-01-05T13:55:28;8.38;;;1.80;;
45043;SDS011;30784;48.490;9.688;2023-01-05T13:57:56;8.85;;;1.90;;
45043;SDS011;30784;48.490;9.688;2023-01-05T14:00:30;8.20;;;1.50;;
45043;SDS011;30784;48.490;9.688;2023-01-05T14:03:00;6.53;;;1.58;;
45043;SDS011;30784;48.490;9.688;2023-01-05T14:05:48;8.10;;;2.00;;
45043;SDS011;30784;48.490;9.688;2023-01-05T14:19:12;10.23;;;2.13;;
45043;SDS011;30784;48.490;9.688;2023-01-05T14:27:10;12.90;;;3.50;;
45043;SDS011;30784;48.490;9.688;2023-01-05T14:32:08;10.43;;;2.75;;
45043;SDS011;30784;48.490;9.688;2023-01-05T14:34:45;6.70;;;1.73;;
45043;SDS011;30784;48.490;9.688;2023-01-05T14:39:58;9.00;;;2.50;;
45043;SDS011;30784;48.490;9.688;2023-01-05T14:42:33;8.57;;;2.22;;
45043;SDS011;30784;48.490;9.688;2023-01-05T14:45:04;8.83;;;1.80;;
45043;SDS011;30784;48.490;9.688;2023-01-05T14:47:42;12.40;;;2.60;;
45043;SDS011;30784;48.490;9.688;2023-01-05T14:55:41;8.32;;;2.35;;
45043;SDS011;30784;48.490;9.688;2023-01-05T15:01:00;11.77;;;2.80;;
45043;SDS011;30784;48.490;9.688;2023-01-05T15:14:36;8.23;;;2.20;;
45043;SDS011;30784;48.490;9.688;2023-01-05T15:25:36;7.93;;;1.95;;
45043;SDS011;30784;48.490;9.688;2023-01-05T15:28:26;6.57;;;1.58;;
45043;SDS011;30784;48.490;9.688;2023-01-05T15:31:34;6.53;;;1.80;;
45043;SDS011;30784;48.490;9.688;2023-01-05T15:37:21;7.38;;;1.70;;
45043;SDS011;30784;48.490;9.688;2023-01-05T15:39:53;6.95;;;2.00;;
45043;SDS011;30784;48.490;9.688;2023-01-05T15:42:21;7.28;;;1.60;;
45043;SDS011;30784;48.490;9.688;2023-01-05T15:44:52;8.10;;;1.60;;
45043;SDS011;30784;48.490;9.688;2023-01-05T15:47:19;7.65;;;1.58;;
45043;SDS011;30784;48.490;9.688;2023-01-05T15:49:46;5.45;;;1.60;;
45043;SDS011;30784;48.490;9.688;2023-01-05T15:52:56;7.13;;;1.35;;
45043;SDS011;30784;48.490;9.688;2023-01-05T15:57:34;6.55;;;1.70;;
45043;SDS011;30784;48.490;9.688;2023-01-05T16:00:00;8.32;;;2.63;;
45043;SDS011;30784;48.490;9.688;2023-01-05T16:02:29;9.23;;;2.80;;
45043;SDS011;30784;48.490;9.688;2023-01-05T16:07:44;7.97;;;2.47;;
45043;SDS011;30784;48.490;9.688;2023-01-05T16:10:17;8.15;;;1.90;;
45043;SDS011;30784;48.490;9.688;2023-01-05T16:15:54;8.15;;;1.95;;
45043;SDS011;30784;48.490;9.688;2023-01-05T16:18:28;7.45;;;1.75;;
45043;SDS011;30784;48.490;9.688;2023-01-05T16:21:23;7.90;;;1.80;;
45043;SDS011;30784;48.490;9.688;2023-01-05T16:23:58;7.88;;;1.60;;
45043;SDS011;30784;48.490;9.688;2023-01-05T16:26:29;6.65;;;1.35;;
45043;SDS011;30784;48.490;9.688;2023-01-05T16:28:58;6.63;;;1.27;;
45043;SDS011;30784;48.490;9.688;2023-01-05T16:31:28;6.63;;;1.77;;
45043;SDS011;30784;48.490;9.688;2023-01-05T16:34:05;6.40;;;1.35;;
45043;SDS011;30784;48.490;9.688;2023-01-05T16:36:56;6.78;;;1.42;;
45043;SDS011;30784;48.490;9.688;2023-01-05T16:39:30;7.20;;;1.70;;
45043;SDS011;30784;48.490;9.688;2023-01-05T16:42:19;7.68;;;1.60;;
45043;SDS011;30784;48.490;9.688;2023-01-05T16:45:16;5.80;;;1.85;;
45043;SDS011;30784;48.490;9.688;2023-01-05T16:47:44;5.97;;;1.50;;
45043;SDS011;30784;48.490;9.688;2023-01-05T16:52:55;5.63;;;1.13;;
45043;SDS011;30784;48.490;9.688;2023-01-05T16:55:39;4.53;;;1.23;;
45043;SDS011;30784;48.490;9.688;2023-01-05T17:00:53;8.45;;;2.00;;
45043;SDS011;30784;48.490;9.688;2023-01-05T17:03:41;8.70;;;1.65;;
45043;SDS011;30784;48.490;9.688;2023-01-05T17:08:47;6.32;;;1.48;;
45043;SDS011;30784;48.490;9.688;2023-01-05T17:11:14;9.10;;;1.42;;
45043;SDS011;30784;48.490;9.688;2023-01-05T17:13:50;6.80;;;1.65;;
45043;SDS011;30784;48.490;9.688;2023-01-05T17:16:16;8.23;;;2.00;;
45043;SDS011;30784;48.490;9.688;2023-01-05T17:18:43;7.82;;;2.08;;
45043;SDS011;30784;48.490;9.688;2023-01-05T17:21:09;7.20;;;1.73;;
45043;SDS011;30784;48.490;9.688;2023-01-05T17:23:43;6.63;;;1.58;;
45043;SDS011;30784;48.490;9.688;2023-01-05T17:26:13;6.53;;;1.65;;
45043;SDS011;30784;48.490;9.688;2023-01-05T17:28:42;6.13;;;1.33;;
45043;SDS011;30784;48.490;9.688;2023-01-05T17:31:08;4.97;;;1.05;;
45043;SDS011;30784;48.490;9.688;2023-01-05T17:33:33;6.72;;;1.10;;
45043;SDS011;30784;48.490;9.688;2023-01-05T17:35:59;4.30;;;1.23;;
45043;SDS011;30784;48.490;9.688;2023-01-05T17:38:25;5.15;;;1.58;;
45043;SDS011;30784;48.490;9.688;2023-01-05T17:40:51;5.90;;;1.55;;
45043;SDS011;30784;48.490;9.688;2023-01-05T17:43:16;8.00;;;2.00;;
45043;SDS011;30784;48.490;9.688;2023-01-05T17:45:45;6.00;;;1.20;;
45043;SDS011;30784;48.490;9.688;2023-01-05T17:48:11;7.28;;;1.55;;
45043;SDS011;30784;48.490;9.688;2023-01-05T17:50:38;5.20;;;1.10;;
45043;SDS011;30784;48.490;9.688;2023-01-05T17:53:05;4.90;;;1.30;;
45043;SDS011;30784;48.490;9.688;2023-01-05T17:55:30;6.05;;;1.38;;
45043;SDS011;30784;48.490;9.688;2023-01-05T17:57:56;6.78;;;1.40;;
45043;SDS011;30784;48.490;9.688;2023-01-05T18:00:24;5.05;;;1.23;;
45043;SDS011;30784;48.490;9.688;2023-01-05T18:02:51;6.78;;;1.80;;